地図

経路データ

SID SEASON NUMBER BASIN SUBBASIN NAME ISO_TIME NATURE LAT LON WMO_WIND WMO_PRES WMO_AGENCY TRACK_TYPE DIST2LAND LANDFALL IFLAG USA_AGENCY USA_ATCF_ID USA_LAT USA_LON USA_RECORD USA_STATUS USA_WIND USA_PRES USA_SSHS USA_R34_NE USA_R34_SE USA_R34_SW USA_R34_NW USA_R50_NE USA_R50_SE USA_R50_SW USA_R50_NW USA_R64_NE USA_R64_SE USA_R64_SW USA_R64_NW USA_POCI USA_ROCI USA_RMW USA_EYE TOKYO_LAT TOKYO_LON TOKYO_GRADE TOKYO_WIND TOKYO_PRES TOKYO_R50_DIR TOKYO_R50_LONG TOKYO_R50_SHORT TOKYO_R30_DIR TOKYO_R30_LONG TOKYO_R30_SHORT TOKYO_LAND CMA_LAT CMA_LON CMA_CAT CMA_WIND CMA_PRES HKO_LAT HKO_LON HKO_CAT HKO_WIND HKO_PRES NEWDELHI_LAT NEWDELHI_LON NEWDELHI_GRADE NEWDELHI_WIND NEWDELHI_PRES NEWDELHI_CI NEWDELHI_DP NEWDELHI_POCI REUNION_LAT REUNION_LON REUNION_TYPE REUNION_WIND REUNION_PRES REUNION_TNUM REUNION_CI REUNION_RMW REUNION_R34_NE REUNION_R34_SE REUNION_R34_SW REUNION_R34_NW REUNION_R50_NE REUNION_R50_SE REUNION_R50_SW REUNION_R50_NW REUNION_R64_NE REUNION_R64_SE REUNION_R64_SW REUNION_R64_NW BOM_LAT BOM_LON BOM_TYPE BOM_WIND BOM_PRES BOM_TNUM BOM_CI BOM_RMW BOM_R34_NE BOM_R34_SE BOM_R34_SW BOM_R34_NW BOM_R50_NE BOM_R50_SE BOM_R50_SW BOM_R50_NW BOM_R64_NE BOM_R64_SE BOM_R64_SW BOM_R64_NW BOM_ROCI BOM_POCI BOM_EYE BOM_POS_METHOD BOM_PRES_METHOD NADI_LAT NADI_LON NADI_CAT NADI_WIND NADI_PRES WELLINGTON_LAT WELLINGTON_LON WELLINGTON_WIND WELLINGTON_PRES DS824_LAT DS824_LON DS824_STAGE DS824_WIND DS824_PRES TD9636_LAT TD9636_LON TD9636_STAGE TD9636_WIND TD9636_PRES TD9635_LAT TD9635_LON TD9635_WIND TD9635_PRES TD9635_ROCI NEUMANN_LAT NEUMANN_LON NEUMANN_CLASS NEUMANN_WIND NEUMANN_PRES MLC_LAT MLC_LON MLC_CLASS MLC_WIND MLC_PRES USA_GUST BOM_GUST BOM_GUST_PER REUNION_GUST REUNION_GUST_PER USA_SEAHGT USA_SEARAD_NE USA_SEARAD_SE USA_SEARAD_SW USA_SEARAD_NW STORM_SPEED STORM_DIR
1927043S15065 1927 8 SI MM NOT_NAMED 1927-02-12 00:00:00 TS -14.9000 64.5000 main 926 910 _________O____ -1 -14.9000 64.5000 TC 25 4 258
1927043S15065 1927 8 SI MM NOT_NAMED 1927-02-12 03:00:00 TS -14.9400 64.3000 main 910 886 _________P____ -1 -14.9400 64.3000 TC 25 4 255
1927043S15065 1927 8 SI MM NOT_NAMED 1927-02-12 06:00:00 TS -15.0000 64.1000 main 886 862 _________O____ -1 -15.0000 64.1000 TC 25 4 248
1927043S15065 1927 8 SI MM NOT_NAMED 1927-02-12 09:00:00 TS -15.0925 63.9000 main 862 839 _________P____ -1 -15.0925 63.9000 TC 25 4 243
1927043S15065 1927 8 SI MM NOT_NAMED 1927-02-12 12:00:00 TS -15.2000 63.7000 main 839 815 _________O____ -1 -15.2000 63.7000 TC 25 4 243
1927043S15065 1927 8 SI MM NOT_NAMED 1927-02-12 15:00:00 TS -15.2925 63.4925 main 815 792 _________P____ -1 -15.2925 63.4925 TC 25 4 243
1927043S15065 1927 8 SI MM NOT_NAMED 1927-02-12 18:00:00 TS -15.4000 63.3000 main 792 777 _________O____ -1 -15.4000 63.3000 TC 25 4 233
1927043S15065 1927 8 SI MM NOT_NAMED 1927-02-12 21:00:00 TS -15.5349 63.1649 main 777 746 _________P____ -1 -15.5349 63.1649 TC 25 4 224
1927043S15065 1927 8 SI MM NOT_NAMED 1927-02-13 00:00:00 TS -15.7000 63.0000 main 746 707 _________O____ -1 -15.7000 63.0000 TC 25 6 229
1927043S15065 1927 8 SI MM NOT_NAMED 1927-02-13 03:00:00 TS -15.9000 62.7300 main 707 668 _________P____ -1 -15.9000 62.7300 TC 25 7 235
1927043S15065 1927 8 SI MM NOT_NAMED 1927-02-13 06:00:00 TS -16.1000 62.4000 main 668 637 _________O____ -1 -16.1000 62.4000 TC 25 7 242
1927043S15065 1927 8 SI MM NOT_NAMED 1927-02-13 09:00:00 TS -16.2500 62.0499 main 622 591 _________P____ -1 -16.2500 62.0499 TC 25 7 246
1927043S15065 1927 8 SI MM NOT_NAMED 1927-02-13 12:00:00 TS -16.4000 61.7000 main 591 552 _________O____ -1 -16.4000 61.7000 TC 25 7 242
1927043S15065 1927 8 SI MM NOT_NAMED 1927-02-13 15:00:00 TS -16.5924 61.3925 main 552 514 _________P____ -1 -16.5924 61.3925 TC 25 7 235
1927043S15065 1927 8 SI MM NOT_NAMED 1927-02-13 18:00:00 TS -16.8000 61.1000 main 514 476 _________O____ -1 -16.8000 61.1000 TC 25 7 234
1927043S15065 1927 8 SI MM NOT_NAMED 1927-02-13 21:00:00 TS -17.0150 60.7850 main 476 438 _________P____ -1 -17.0150 60.7850 TC 25 7 235
1927043S15065 1927 8 SI MM NOT_NAMED 1927-02-14 00:00:00 TS -17.2000 60.5000 main 438 416 _________O____ -1 -17.2000 60.5000 TC 25 6 238
1927043S15065 1927 8 SI MM NOT_NAMED 1927-02-14 03:00:00 TS -17.3149 60.2849 main 416 393 _________P____ -1 -17.3149 60.2849 TC 25 4 242
1927043S15065 1927 8 SI MM NOT_NAMED 1927-02-14 06:00:00 TS -17.4000 60.1000 main 393 371 _________O____ -1 -17.4000 60.1000 TC 25 4 245
1927043S15065 1927 8 SI MM NOT_NAMED 1927-02-14 09:00:00 TS -17.4925 59.8925 main 371 350 _________P____ -1 -17.4925 59.8925 TC 25 4 242
1927043S15065 1927 8 SI MM NOT_NAMED 1927-02-14 12:00:00 TS -17.6000 59.7000 main 350 334 _________O____ -1 -17.6000 59.7000 TC 25 4 232
1927043S15065 1927 8 SI MM NOT_NAMED 1927-02-14 15:00:00 TS -17.7500 59.5500 main 334 304 _________P____ -1 -17.7500 59.5500 TC 25 4 223
1927043S15065 1927 8 SI MM NOT_NAMED 1927-02-14 18:00:00 TS -17.9000 59.4000 main 304 282 _________O____ -1 -17.9000 59.4000 TC 25 4 232
1927043S15065 1927 8 SI MM NOT_NAMED 1927-02-14 21:00:00 TS -18.0075 59.2075 main 282 262 _________P____ -1 -18.0075 59.2075 TC 25 4 242
1927043S15065 1927 8 SI MM NOT_NAMED 1927-02-15 00:00:00 TS -18.1000 59.0000 main 262 241 _________O____ -1 -18.1000 59.0000 TC 25 4 244
1927043S15065 1927 8 SI MM NOT_NAMED 1927-02-15 03:00:00 TS -18.2000 58.7925 main 241 222 _________P____ -1 -18.2000 58.7925 TC 25 4 242
1927043S15065 1927 8 SI MM NOT_NAMED 1927-02-15 06:00:00 TS -18.3000 58.6000 main 222 207 _________O____ -1 -18.3000 58.6000 TC 25 4 239
1927043S15065 1927 8 SI MM NOT_NAMED 1927-02-15 09:00:00 TS -18.3999 58.4500 main 203 189 _________P____ -1 -18.3999 58.4500 TC 25 3 235
1927043S15065 1927 8 SI MM NOT_NAMED 1927-02-15 12:00:00 TS -18.5000 58.3000 main 189 172 _________O____ -1 -18.5000 58.3000 TC 25 4 239
1927043S15065 1927 8 SI MM NOT_NAMED 1927-02-15 15:00:00 TS -18.6000 58.1000 main 172 158 _________P____ -1 -18.6000 58.1000 TC 25 4 242
1927043S15065 1927 8 SI MM NOT_NAMED 1927-02-15 18:00:00 TS -18.7000 57.9000 main 158 145 _________O____ -1 -18.7000 57.9000 TC 25 4 239
1927043S15065 1927 8 SI MM NOT_NAMED 1927-02-15 21:00:00 TS -18.7999 57.7500 main 145 134 _________P____ -1 -18.7999 57.7500 TC 25 3 235
1927043S15065 1927 8 SI MM NOT_NAMED 1927-02-16 00:00:00 TS -18.9000 57.6000 main 134 123 _________O____ -1 -18.9000 57.6000 TC 25 4 238
1927043S15065 1927 8 SI MM NOT_NAMED 1927-02-16 03:00:00 TS -19.0000 57.4150 main 123 113 _________P____ -1 -19.0000 57.4150 TC 25 4 242
1927043S15065 1927 8 SI MM NOT_NAMED 1927-02-16 06:00:00 TS -19.1000 57.2000 main 116 109 _________O____ -1 -19.1000 57.2000 TC 25 5 246
1927043S15065 1927 8 SI MM NOT_NAMED 1927-02-16 09:00:00 TS -19.1925 56.9575 main 113 113 _________P____ -1 -19.1925 56.9575 TC 25 5 247
1927043S15065 1927 8 SI MM NOT_NAMED 1927-02-16 12:00:00 TS -19.3000 56.7000 main 122 122 _________O____ -1 -19.3000 56.7000 TC 25 5 242
1927043S15065 1927 8 SI MM NOT_NAMED 1927-02-16 15:00:00 TS -19.4425 56.4500 main 139 133 _________P____ -1 -19.4425 56.4500 TC 25 6 237
1927043S15065 1927 8 SI MM NOT_NAMED 1927-02-16 18:00:00 TS -19.6000 56.2000 main 147 137 _________O____ -1 -19.6000 56.2000 TC 25 6 236
1927043S15065 1927 8 SI MM NOT_NAMED 1927-02-16 21:00:00 TS -19.7650 55.9425 main 135 123 _________P____ -1 -19.7650 55.9425 TC 25 6 237
1927043S15065 1927 8 SI MM NOT_NAMED 1927-02-17 00:00:00 TS -19.9000 55.7000 main 123 111 _________O____ -1 -19.9000 55.7000 TC 25 5 243
1927043S15065 1927 8 SI MM NOT_NAMED 1927-02-17 03:00:00 TS -19.9799 55.4925 main 111 111 _________P____ -1 -19.9799 55.4925 TC 25 4 255
1927043S15065 1927 8 SI MM NOT_NAMED 1927-02-17 06:00:00 TS -20.0000 55.3000 main 111 111 _________O____ -1 -20.0000 55.3000 TC 25 4 272
1927043S15065 1927 8 SI MM NOT_NAMED 1927-02-17 09:00:00 TS -19.9650 55.1000 main 113 113 _________P____ -1 -19.9650 55.1000 TC 25 4 285
1927043S15065 1927 8 SI MM NOT_NAMED 1927-02-17 12:00:00 TS -19.9000 54.9000 main 129 129 _________O____ -1 -19.9000 54.9000 TC 25 4 287
1927043S15065 1927 8 SI MM NOT_NAMED 1927-02-17 15:00:00 TS -19.8500 54.6925 main 148 137 _________P____ -1 -19.8500 54.6925 TC 25 4 285
1927043S15065 1927 8 SI MM NOT_NAMED 1927-02-17 18:00:00 TS -19.8000 54.5000 main 157 157 _________O____ -1 -19.8000 54.5000 TC 25 3 287
1927043S15065 1927 8 SI MM NOT_NAMED 1927-02-17 21:00:00 TS -19.7647 54.3952 main 163 163 _________P____ -1 -19.7647 54.3952 TC 25 3 290
1927043S15065 1927 8 SI MM NOT_NAMED 1927-02-18 00:00:00 TS -19.7000 54.2000 main 185 185 _________O____ -1 -19.7000 54.2000 TC 25 6 287
1927043S15065 1927 8 SI MM NOT_NAMED 1927-02-18 03:00:00 TS -19.5727 53.7449 main 228 228 _________P____ -1 -19.5727 53.7449 TC 25 10 288
1927043S15065 1927 8 SI MM NOT_NAMED 1927-02-18 06:00:00 TS -19.4000 53.2000 main 282 282 _________O____ -1 -19.4000 53.2000 TC 25 10 292
1927043S15065 1927 8 SI MM NOT_NAMED 1927-02-18 09:00:00 TS -19.1998 52.7500 main 328 318 _________P____ -1 -19.1998 52.7500 TC 25 9 295
1927043S15065 1927 8 SI MM NOT_NAMED 1927-02-18 12:00:00 TS -19.0000 52.3000 main 318 264 _________O____ -1 -19.0000 52.3000 TC 25 10 292
1927043S15065 1927 8 SI MM NOT_NAMED 1927-02-18 15:00:00 TS -18.8424 51.8076 main 261 208 _________P____ -1 -18.8424 51.8076 TC 25 10 288
1927043S15065 1927 8 SI MM NOT_NAMED 1927-02-18 18:00:00 TS -18.7000 51.3000 main 208 154 _________O____ -1 -18.7000 51.3000 TC 25 10 287
1927043S15065 1927 8 SI MM NOT_NAMED 1927-02-18 21:00:00 TS -18.5527 50.7973 main 154 97 _________P____ -1 -18.5527 50.7973 TC 25 10 288
1927043S15065 1927 8 SI MM NOT_NAMED 1927-02-19 00:00:00 TS -18.4000 50.3000 main 97 _________O____ -1 -18.4000 50.3000 TC 25 10 288

IBTrACS Databaseについて

本データベースは、米国NOAAが公開する1842年以降の世界の熱帯低気圧のベストトラックデータアーカイブInternational Best Track Archive for Climate Stewardship (IBTrACS)を、ウェブで閲覧しやすい形式に変換したものです。

最終更新日:2021-10-21